Shasta Lake, California
Current Conditions -  °F | °C
As of 2:53 PM on Saturday 25 Oct 2014 (Local Time) from KRDD Reporting Station
Clear Clear  
Wind Chill: 67°   Ceiling: Unl
Heat Index: 67°   Visibility: 10mi
Dew Point: 55°   Wind: 37mph
Humidity: 66%   Direction: 170°S
Pressure: 29.83"   Gusts: 53mph
Location:  40.68°N, 122.35°W
Report Text: KRDD 252153Z 17032G46KT 10SM CLR 19/13 A2983 RMK AO2 PK WND 18047/2130 LTG DSNT N SLP099 T01940128
Loading
Personal Weather Stations






























Interactive Weather Map
Tropical Storm Tracking
New forecast layout! Learn more

10-Day Weather Forecast

Advertisements
Track Severe Weather on mobile